sensor_id;sensor_type;location;lat;lon;timestamp;P1;durP1;ratioP1;P2;durP2;ratioP2
60714;SDS011;46564;53.096;8.246;2023-05-10T00:02:26;7.90;;;3.42;;
60714;SDS011;46564;53.096;8.246;2023-05-10T00:07:28;5.47;;;2.72;;
60714;SDS011;46564;53.096;8.246;2023-05-10T00:12:29;5.20;;;2.38;;
60714;SDS011;46564;53.096;8.246;2023-05-10T00:17:31;7.32;;;3.08;;
60714;SDS011;46564;53.096;8.246;2023-05-10T00:22:33;6.20;;;2.47;;
60714;SDS011;46564;53.096;8.246;2023-05-10T00:27:34;6.93;;;2.75;;
60714;SDS011;46564;53.096;8.246;2023-05-10T00:32:36;5.78;;;3.08;;
60714;SDS011;46564;53.096;8.246;2023-05-10T00:37:38;5.75;;;3.10;;
60714;SDS011;46564;53.096;8.246;2023-05-10T00:42:39;5.18;;;2.60;;
60714;SDS011;46564;53.096;8.246;2023-05-10T00:47:41;6.30;;;2.78;;
60714;SDS011;46564;53.096;8.246;2023-05-10T00:52:43;6.95;;;2.55;;
60714;SDS011;46564;53.096;8.246;2023-05-10T00:57:45;4.82;;;2.33;;
60714;SDS011;46564;53.096;8.246;2023-05-10T01:02:47;6.13;;;2.60;;
60714;SDS011;46564;53.096;8.246;2023-05-10T01:07:49;5.85;;;2.50;;
60714;SDS011;46564;53.096;8.246;2023-05-10T01:12:51;10.43;;;2.67;;
60714;SDS011;46564;53.096;8.246;2023-05-10T01:17:54;5.95;;;2.40;;
60714;SDS011;46564;53.096;8.246;2023-05-10T01:23:21;7.53;;;2.33;;
60714;SDS011;46564;53.096;8.246;2023-05-10T01:34:35;4.30;;;1.90;;
60714;SDS011;46564;53.096;8.246;2023-05-10T01:50:29;6.05;;;3.05;;
60714;SDS011;46564;53.096;8.246;2023-05-10T01:55:32;7.20;;;2.50;;
60714;SDS011;46564;53.096;8.246;2023-05-10T02:00:44;4.90;;;2.45;;
60714;SDS011;46564;53.096;8.246;2023-05-10T02:05:48;5.03;;;2.85;;
60714;SDS011;46564;53.096;8.246;2023-05-10T02:10:52;6.53;;;2.75;;
60714;SDS011;46564;53.096;8.246;2023-05-10T02:15:56;4.65;;;2.40;;
60714;SDS011;46564;53.096;8.246;2023-05-10T02:20:59;4.57;;;2.40;;
60714;SDS011;46564;53.096;8.246;2023-05-10T02:26:02;5.55;;;2.53;;
60714;SDS011;46564;53.096;8.246;2023-05-10T02:31:06;6.55;;;2.72;;
60714;SDS011;46564;53.096;8.246;2023-05-10T02:36:12;4.97;;;2.47;;
60714;SDS011;46564;53.096;8.246;2023-05-10T02:41:15;6.60;;;2.88;;
60714;SDS011;46564;53.096;8.246;2023-05-10T02:46:17;6.55;;;2.90;;
60714;SDS011;46564;53.096;8.246;2023-05-10T02:51:19;6.25;;;2.58;;
60714;SDS011;46564;53.096;8.246;2023-05-10T02:56:28;5.30;;;2.60;;
60714;SDS011;46564;53.096;8.246;2023-05-10T03:01:35;6.38;;;3.10;;
60714;SDS011;46564;53.096;8.246;2023-05-10T03:06:37;5.28;;;2.58;;
60714;SDS011;46564;53.096;8.246;2023-05-10T03:16:56;4.70;;;2.20;;
60714;SDS011;46564;53.096;8.246;2023-05-10T03:22:10;6.28;;;2.60;;
60714;SDS011;46564;53.096;8.246;2023-05-10T03:27:13;5.22;;;2.53;;
60714;SDS011;46564;53.096;8.246;2023-05-10T03:32:16;5.18;;;2.65;;
60714;SDS011;46564;53.096;8.246;2023-05-10T03:37:18;4.05;;;2.38;;
60714;SDS011;46564;53.096;8.246;2023-05-10T03:42:19;7.47;;;3.00;;
60714;SDS011;46564;53.096;8.246;2023-05-10T03:47:21;4.72;;;2.08;;
60714;SDS011;46564;53.096;8.246;2023-05-10T03:52:23;5.38;;;2.60;;
60714;SDS011;46564;53.096;8.246;2023-05-10T03:57:25;4.85;;;2.42;;
60714;SDS011;46564;53.096;8.246;2023-05-10T04:02:26;5.85;;;2.78;;
60714;SDS011;46564;53.096;8.246;2023-05-10T04:07:28;4.28;;;2.00;;
60714;SDS011;46564;53.096;8.246;2023-05-10T04:12:30;3.60;;;1.63;;
60714;SDS011;46564;53.096;8.246;2023-05-10T04:17:32;3.38;;;1.48;;
60714;SDS011;46564;53.096;8.246;2023-05-10T04:22:33;4.75;;;1.75;;
60714;SDS011;46564;53.096;8.246;2023-05-10T04:27:35;4.63;;;1.38;;
60714;SDS011;46564;53.096;8.246;2023-05-10T04:32:36;3.63;;;1.60;;
60714;SDS011;46564;53.096;8.246;2023-05-10T04:37:38;2.40;;;1.08;;
60714;SDS011;46564;53.096;8.246;2023-05-10T04:42:40;3.22;;;1.35;;
60714;SDS011;46564;53.096;8.246;2023-05-10T04:47:42;3.85;;;1.50;;
60714;SDS011;46564;53.096;8.246;2023-05-10T04:52:44;4.57;;;1.95;;
60714;SDS011;46564;53.096;8.246;2023-05-10T04:57:46;5.60;;;1.63;;
60714;SDS011;46564;53.096;8.246;2023-05-10T05:02:47;4.93;;;1.80;;
60714;SDS011;46564;53.096;8.246;2023-05-10T05:07:49;4.07;;;1.50;;
60714;SDS011;46564;53.096;8.246;2023-05-10T05:12:50;3.25;;;1.45;;
60714;SDS011;46564;53.096;8.246;2023-05-10T05:17:52;7.75;;;1.55;;
60714;SDS011;46564;53.096;8.246;2023-05-10T05:22:53;3.72;;;1.83;;
60714;SDS011;46564;53.096;8.246;2023-05-10T05:27:55;4.07;;;1.70;;
60714;SDS011;46564;53.096;8.246;2023-05-10T05:32:57;4.80;;;1.83;;
60714;SDS011;46564;53.096;8.246;2023-05-10T05:37:58;2.13;;;0.90;;
60714;SDS011;46564;53.096;8.246;2023-05-10T05:43:00;2.55;;;1.20;;
60714;SDS011;46564;53.096;8.246;2023-05-10T05:48:01;4.38;;;1.60;;
60714;SDS011;46564;53.096;8.246;2023-05-10T05:53:03;3.67;;;1.58;;
60714;SDS011;46564;53.096;8.246;2023-05-10T05:58:05;3.08;;;1.50;;
60714;SDS011;46564;53.096;8.246;2023-05-10T06:03:06;3.17;;;1.45;;
60714;SDS011;46564;53.096;8.246;2023-05-10T06:08:08;5.05;;;2.10;;
60714;SDS011;46564;53.096;8.246;2023-05-10T06:13:10;4.53;;;1.92;;
60714;SDS011;46564;53.096;8.246;2023-05-10T06:18:11;4.65;;;1.88;;
60714;SDS011;46564;53.096;8.246;2023-05-10T06:23:13;6.13;;;2.25;;
60714;SDS011;46564;53.096;8.246;2023-05-10T06:28:15;5.13;;;2.28;;
60714;SDS011;46564;53.096;8.246;2023-05-10T06:33:16;6.45;;;2.53;;
60714;SDS011;46564;53.096;8.246;2023-05-10T06:38:18;4.65;;;2.30;;
60714;SDS011;46564;53.096;8.246;2023-05-10T06:43:19;5.32;;;2.17;;
60714;SDS011;46564;53.096;8.246;2023-05-10T06:48:21;6.07;;;2.60;;
60714;SDS011;46564;53.096;8.246;2023-05-10T06:53:23;5.65;;;1.92;;
60714;SDS011;46564;53.096;8.246;2023-05-10T06:58:24;5.05;;;2.30;;
60714;SDS011;46564;53.096;8.246;2023-05-10T07:03:26;5.10;;;2.25;;
60714;SDS011;46564;53.096;8.246;2023-05-10T07:08:27;6.32;;;2.72;;
60714;SDS011;46564;53.096;8.246;2023-05-10T07:13:33;5.53;;;2.38;;
60714;SDS011;46564;53.096;8.246;2023-05-10T07:18:35;4.30;;;2.08;;
60714;SDS011;46564;53.096;8.246;2023-05-10T07:23:37;6.45;;;2.28;;
60714;SDS011;46564;53.096;8.246;2023-05-10T07:28:38;3.78;;;1.70;;
60714;SDS011;46564;53.096;8.246;2023-05-10T07:33:40;5.90;;;2.13;;
60714;SDS011;46564;53.096;8.246;2023-05-10T07:38:41;4.10;;;2.03;;
60714;SDS011;46564;53.096;8.246;2023-05-10T07:43:43;4.75;;;2.03;;
60714;SDS011;46564;53.096;8.246;2023-05-10T07:48:45;2.72;;;1.50;;
60714;SDS011;46564;53.096;8.246;2023-05-10T07:53:47;3.95;;;1.65;;
60714;SDS011;46564;53.096;8.246;2023-05-10T07:58:48;4.88;;;1.80;;
60714;SDS011;46564;53.096;8.246;2023-05-10T08:03:51;3.10;;;1.40;;
60714;SDS011;46564;53.096;8.246;2023-05-10T08:08:54;2.47;;;1.50;;
60714;SDS011;46564;53.096;8.246;2023-05-10T08:13:56;6.35;;;1.48;;
60714;SDS011;46564;53.096;8.246;2023-05-10T08:18:58;3.47;;;1.33;;
60714;SDS011;46564;53.096;8.246;2023-05-10T08:23:59;2.75;;;1.33;;
60714;SDS011;46564;53.096;8.246;2023-05-10T08:29:02;5.50;;;1.33;;
60714;SDS011;46564;53.096;8.246;2023-05-10T08:34:03;2.53;;;1.30;;
60714;SDS011;46564;53.096;8.246;2023-05-10T08:39:05;3.80;;;1.55;;
60714;SDS011;46564;53.096;8.246;2023-05-10T08:44:16;4.72;;;1.48;;
60714;SDS011;46564;53.096;8.246;2023-05-10T08:49:19;2.45;;;1.35;;
60714;SDS011;46564;53.096;8.246;2023-05-10T08:54:21;2.97;;;1.50;;
60714;SDS011;46564;53.096;8.246;2023-05-10T08:59:24;5.10;;;1.48;;
60714;SDS011;46564;53.096;8.246;2023-05-10T09:04:27;3.00;;;1.67;;
60714;SDS011;46564;53.096;8.246;2023-05-10T09:09:29;2.58;;;1.40;;
60714;SDS011;46564;53.096;8.246;2023-05-10T09:14:30;3.35;;;1.67;;
60714;SDS011;46564;53.096;8.246;2023-05-10T09:19:36;2.58;;;1.30;;
60714;SDS011;46564;53.096;8.246;2023-05-10T09:24:37;2.42;;;1.25;;
60714;SDS011;46564;53.096;8.246;2023-05-10T09:29:43;3.15;;;1.40;;
60714;SDS011;46564;53.096;8.246;2023-05-10T09:34:45;4.10;;;1.60;;
60714;SDS011;46564;53.096;8.246;2023-05-10T09:39:47;3.30;;;1.63;;
60714;SDS011;46564;53.096;8.246;2023-05-10T09:44:48;4.00;;;1.67;;
60714;SDS011;46564;53.096;8.246;2023-05-10T09:49:50;2.28;;;1.23;;
60714;SDS011;46564;53.096;8.246;2023-05-10T09:54:52;3.83;;;1.70;;
60714;SDS011;46564;53.096;8.246;2023-05-10T09:59:55;3.53;;;1.42;;
60714;SDS011;46564;53.096;8.246;2023-05-10T10:05:00;2.83;;;1.13;;
60714;SDS011;46564;53.096;8.246;2023-05-10T10:10:02;2.10;;;0.90;;
60714;SDS011;46564;53.096;8.246;2023-05-10T10:15:06;1.42;;;0.70;;
60714;SDS011;46564;53.096;8.246;2023-05-10T10:20:09;0.32;;;0.30;;
60714;SDS011;46564;53.096;8.246;2023-05-10T10:25:13;1.17;;;0.63;;
60714;SDS011;46564;53.096;8.246;2023-05-10T10:35:18;0.40;;;0.40;;
60714;SDS011;46564;53.096;8.246;2023-05-10T10:40:27;0.68;;;0.40;;
60714;SDS011;46564;53.096;8.246;2023-05-10T10:45:32;2.08;;;0.52;;
60714;SDS011;46564;53.096;8.246;2023-05-10T10:50:42;0.30;;;0.30;;
60714;SDS011;46564;53.096;8.246;2023-05-10T10:55:46;0.30;;;0.20;;
60714;SDS011;46564;53.096;8.246;2023-05-10T11:00:49;0.17;;;0.15;;
60714;SDS011;46564;53.096;8.246;2023-05-10T11:05:53;0.10;;;0.10;;
60714;SDS011;46564;53.096;8.246;2023-05-10T11:21:15;0.22;;;0.20;;
60714;SDS011;46564;53.096;8.246;2023-05-10T11:26:17;0.47;;;0.25;;
60714;SDS011;46564;53.096;8.246;2023-05-10T11:31:20;1.13;;;0.77;;
60714;SDS011;46564;53.096;8.246;2023-05-10T11:36:28;1.80;;;0.82;;
60714;SDS011;46564;53.096;8.246;2023-05-10T11:41:34;2.03;;;1.10;;
60714;SDS011;46564;53.096;8.246;2023-05-10T11:46:35;3.65;;;1.65;;
60714;SDS011;46564;53.096;8.246;2023-05-10T11:51:37;4.22;;;1.83;;
60714;SDS011;46564;53.096;8.246;2023-05-10T11:56:40;4.22;;;2.00;;
60714;SDS011;46564;53.096;8.246;2023-05-10T12:01:42;5.20;;;1.98;;
60714;SDS011;46564;53.096;8.246;2023-05-10T12:06:44;4.05;;;1.95;;
60714;SDS011;46564;53.096;8.246;2023-05-10T12:11:47;4.75;;;2.22;;
60714;SDS011;46564;53.096;8.246;2023-05-10T12:16:49;4.18;;;1.90;;
60714;SDS011;46564;53.096;8.246;2023-05-10T12:21:50;4.15;;;2.08;;
60714;SDS011;46564;53.096;8.246;2023-05-10T12:26:52;5.30;;;2.10;;
60714;SDS011;46564;53.096;8.246;2023-05-10T12:31:57;4.28;;;1.98;;
60714;SDS011;46564;53.096;8.246;2023-05-10T12:37:00;6.55;;;2.33;;
60714;SDS011;46564;53.096;8.246;2023-05-10T12:42:02;3.72;;;1.65;;
60714;SDS011;46564;53.096;8.246;2023-05-10T12:47:03;4.28;;;1.90;;
60714;SDS011;46564;53.096;8.246;2023-05-10T12:52:05;4.80;;;2.10;;
60714;SDS011;46564;53.096;8.246;2023-05-10T12:57:07;3.00;;;1.58;;
60714;SDS011;46564;53.096;8.246;2023-05-10T13:02:08;4.18;;;1.75;;
60714;SDS011;46564;53.096;8.246;2023-05-10T13:07:11;1.58;;;1.27;;
60714;SDS011;46564;53.096;8.246;2023-05-10T13:12:12;3.10;;;1.45;;
60714;SDS011;46564;53.096;8.246;2023-05-10T13:17:14;4.95;;;2.10;;
60714;SDS011;46564;53.096;8.246;2023-05-10T13:22:15;5.03;;;1.60;;
60714;SDS011;46564;53.096;8.246;2023-05-10T13:27:29;2.65;;;1.48;;
60714;SDS011;46564;53.096;8.246;2023-05-10T13:32:30;3.50;;;1.70;;
60714;SDS011;46564;53.096;8.246;2023-05-10T13:37:32;5.35;;;1.30;;
60714;SDS011;46564;53.096;8.246;2023-05-10T13:42:36;2.08;;;1.10;;
60714;SDS011;46564;53.096;8.246;2023-05-10T13:47:38;1.23;;;0.93;;
60714;SDS011;46564;53.096;8.246;2023-05-10T13:52:40;0.75;;;0.60;;
60714;SDS011;46564;53.096;8.246;2023-05-10T13:57:41;1.42;;;0.90;;
60714;SDS011;46564;53.096;8.246;2023-05-10T14:02:44;1.77;;;1.05;;
60714;SDS011;46564;53.096;8.246;2023-05-10T14:07:45;2.67;;;1.33;;
60714;SDS011;46564;53.096;8.246;2023-05-10T14:12:47;1.65;;;1.05;;
60714;SDS011;46564;53.096;8.246;2023-05-10T14:17:48;0.82;;;0.73;;
60714;SDS011;46564;53.096;8.246;2023-05-10T14:22:50;0.93;;;0.60;;
60714;SDS011;46564;53.096;8.246;2023-05-10T14:27:51;1.00;;;0.60;;
60714;SDS011;46564;53.096;8.246;2023-05-10T14:32:55;1.90;;;0.50;;
60714;SDS011;46564;53.096;8.246;2023-05-10T14:37:59;1.33;;;0.88;;
60714;SDS011;46564;53.096;8.246;2023-05-10T14:43:01;0.82;;;0.57;;
60714;SDS011;46564;53.096;8.246;2023-05-10T14:48:02;1.52;;;1.00;;
60714;SDS011;46564;53.096;8.246;2023-05-10T14:53:05;1.27;;;0.85;;
60714;SDS011;46564;53.096;8.246;2023-05-10T14:58:07;0.95;;;0.68;;
60714;SDS011;46564;53.096;8.246;2023-05-10T15:03:08;1.58;;;0.95;;
60714;SDS011;46564;53.096;8.246;2023-05-10T15:08:11;3.15;;;1.13;;
60714;SDS011;46564;53.096;8.246;2023-05-10T15:13:13;0.90;;;0.45;;
60714;SDS011;46564;53.096;8.246;2023-05-10T15:18:15;1.70;;;0.75;;
60714;SDS011;46564;53.096;8.246;2023-05-10T15:23:16;1.15;;;0.60;;
60714;SDS011;46564;53.096;8.246;2023-05-10T15:28:18;1.15;;;0.70;;
60714;SDS011;46564;53.096;8.246;2023-05-10T15:33:20;0.65;;;0.50;;
60714;SDS011;46564;53.096;8.246;2023-05-10T15:38:21;1.10;;;0.50;;
60714;SDS011;46564;53.096;8.246;2023-05-10T15:43:23;0.82;;;0.60;;
60714;SDS011;46564;53.096;8.246;2023-05-10T15:48:25;1.52;;;0.75;;
60714;SDS011;46564;53.096;8.246;2023-05-10T15:53:26;1.25;;;0.70;;
60714;SDS011;46564;53.096;8.246;2023-05-10T15:58:28;1.02;;;0.60;;
60714;SDS011;46564;53.096;8.246;2023-05-10T16:03:29;1.10;;;0.65;;
60714;SDS011;46564;53.096;8.246;2023-05-10T16:08:31;1.30;;;0.80;;
60714;SDS011;46564;53.096;8.246;2023-05-10T16:13:33;0.70;;;0.50;;
60714;SDS011;46564;53.096;8.246;2023-05-10T16:18:35;2.00;;;1.00;;
60714;SDS011;46564;53.096;8.246;2023-05-10T16:23:37;2.20;;;1.30;;
60714;SDS011;46564;53.096;8.246;2023-05-10T16:28:38;1.65;;;0.88;;
60714;SDS011;46564;53.096;8.246;2023-05-10T16:33:41;2.10;;;0.88;;
60714;SDS011;46564;53.096;8.246;2023-05-10T16:38:42;1.55;;;0.80;;
60714;SDS011;46564;53.096;8.246;2023-05-10T16:43:44;1.17;;;0.82;;
60714;SDS011;46564;53.096;8.246;2023-05-10T16:48:45;0.70;;;0.65;;
60714;SDS011;46564;53.096;8.246;2023-05-10T16:53:47;1.58;;;0.70;;
60714;SDS011;46564;53.096;8.246;2023-05-10T16:58:48;1.48;;;0.98;;
60714;SDS011;46564;53.096;8.246;2023-05-10T17:03:50;2.72;;;0.68;;
60714;SDS011;46564;53.096;8.246;2023-05-10T17:08:52;1.13;;;0.70;;
60714;SDS011;46564;53.096;8.246;2023-05-10T17:13:53;2.15;;;1.00;;
60714;SDS011;46564;53.096;8.246;2023-05-10T17:18:54;6.22;;;1.27;;
60714;SDS011;46564;53.096;8.246;2023-05-10T17:23:56;1.20;;;0.77;;
60714;SDS011;46564;53.096;8.246;2023-05-10T17:28:58;3.22;;;1.27;;
60714;SDS011;46564;53.096;8.246;2023-05-10T17:34:00;4.18;;;1.20;;
60714;SDS011;46564;53.096;8.246;2023-05-10T17:39:05;2.00;;;0.90;;
60714;SDS011;46564;53.096;8.246;2023-05-10T17:44:06;2.20;;;1.08;;
60714;SDS011;46564;53.096;8.246;2023-05-10T17:49:08;2.75;;;1.02;;
60714;SDS011;46564;53.096;8.246;2023-05-10T17:54:10;1.58;;;1.08;;
60714;SDS011;46564;53.096;8.246;2023-05-10T17:59:11;1.55;;;1.02;;
60714;SDS011;46564;53.096;8.246;2023-05-10T18:04:12;3.20;;;0.90;;
60714;SDS011;46564;53.096;8.246;2023-05-10T18:09:14;1.40;;;0.82;;
60714;SDS011;46564;53.096;8.246;2023-05-10T18:14:16;2.75;;;1.30;;
60714;SDS011;46564;53.096;8.246;2023-05-10T18:19:38;2.42;;;1.25;;
60714;SDS011;46564;53.096;8.246;2023-05-10T18:24:39;1.52;;;1.02;;
60714;SDS011;46564;53.096;8.246;2023-05-10T18:29:41;1.95;;;1.20;;
60714;SDS011;46564;53.096;8.246;2023-05-10T18:34:43;2.58;;;1.30;;
60714;SDS011;46564;53.096;8.246;2023-05-10T18:39:44;2.90;;;1.33;;
60714;SDS011;46564;53.096;8.246;2023-05-10T18:44:46;2.35;;;1.02;;
60714;SDS011;46564;53.096;8.246;2023-05-10T18:49:47;4.30;;;1.20;;
60714;SDS011;46564;53.096;8.246;2023-05-10T18:54:49;3.03;;;1.35;;
60714;SDS011;46564;53.096;8.246;2023-05-10T18:59:50;2.00;;;1.10;;
60714;SDS011;46564;53.096;8.246;2023-05-10T19:04:52;2.10;;;1.05;;
60714;SDS011;46564;53.096;8.246;2023-05-10T19:09:53;2.30;;;1.10;;
60714;SDS011;46564;53.096;8.246;2023-05-10T19:14:55;3.80;;;1.15;;
60714;SDS011;46564;53.096;8.246;2023-05-10T19:19:57;3.00;;;1.02;;
60714;SDS011;46564;53.096;8.246;2023-05-10T19:24:59;3.83;;;1.48;;
60714;SDS011;46564;53.096;8.246;2023-05-10T19:30:01;2.67;;;1.45;;
60714;SDS011;46564;53.096;8.246;2023-05-10T19:35:03;2.38;;;1.20;;
60714;SDS011;46564;53.096;8.246;2023-05-10T19:40:06;2.88;;;1.65;;
60714;SDS011;46564;53.096;8.246;2023-05-10T19:45:10;4.63;;;1.40;;
60714;SDS011;46564;53.096;8.246;2023-05-10T19:50:12;3.17;;;1.40;;
60714;SDS011;46564;53.096;8.246;2023-05-10T19:55:14;2.85;;;1.35;;
60714;SDS011;46564;53.096;8.246;2023-05-10T20:00:27;3.42;;;1.67;;
60714;SDS011;46564;53.096;8.246;2023-05-10T20:05:28;3.67;;;1.35;;
60714;SDS011;46564;53.096;8.246;2023-05-10T20:10:30;4.05;;;1.80;;
60714;SDS011;46564;53.096;8.246;2023-05-10T20:15:33;3.33;;;1.42;;
60714;SDS011;46564;53.096;8.246;2023-05-10T20:20:36;2.38;;;1.23;;
60714;SDS011;46564;53.096;8.246;2023-05-10T20:25:39;5.35;;;1.52;;
60714;SDS011;46564;53.096;8.246;2023-05-10T20:30:40;3.38;;;1.60;;
60714;SDS011;46564;53.096;8.246;2023-05-10T20:35:42;3.05;;;1.45;;
60714;SDS011;46564;53.096;8.246;2023-05-10T20:40:44;5.13;;;1.95;;
60714;SDS011;46564;53.096;8.246;2023-05-10T20:45:46;5.40;;;2.30;;
60714;SDS011;46564;53.096;8.246;2023-05-10T20:50:48;5.03;;;1.92;;
60714;SDS011;46564;53.096;8.246;2023-05-10T20:55:51;2.60;;;1.55;;
60714;SDS011;46564;53.096;8.246;2023-05-10T21:00:53;6.97;;;2.15;;
60714;SDS011;46564;53.096;8.246;2023-05-10T21:05:55;4.72;;;1.83;;
60714;SDS011;46564;53.096;8.246;2023-05-10T21:10:56;5.53;;;2.33;;
60714;SDS011;46564;53.096;8.246;2023-05-10T21:15:58;8.15;;;2.15;;
60714;SDS011;46564;53.096;8.246;2023-05-10T21:21:00;6.18;;;2.20;;
60714;SDS011;46564;53.096;8.246;2023-05-10T21:26:02;3.83;;;1.80;;
60714;SDS011;46564;53.096;8.246;2023-05-10T21:31:04;3.60;;;1.80;;
60714;SDS011;46564;53.096;8.246;2023-05-10T21:36:06;4.95;;;2.35;;
60714;SDS011;46564;53.096;8.246;2023-05-10T21:41:09;8.18;;;2.72;;
60714;SDS011;46564;53.096;8.246;2023-05-10T21:46:10;4.65;;;2.05;;
60714;SDS011;46564;53.096;8.246;2023-05-10T21:51:14;6.63;;;2.58;;
60714;SDS011;46564;53.096;8.246;2023-05-10T21:56:16;5.07;;;1.90;;
60714;SDS011;46564;53.096;8.246;2023-05-10T22:01:17;5.13;;;2.35;;
60714;SDS011;46564;53.096;8.246;2023-05-10T22:06:19;5.30;;;2.53;;
60714;SDS011;46564;53.096;8.246;2023-05-10T22:11:21;4.88;;;2.05;;
60714;SDS011;46564;53.096;8.246;2023-05-10T22:16:23;6.20;;;2.55;;
60714;SDS011;46564;53.096;8.246;2023-05-10T22:21:24;5.90;;;2.63;;
60714;SDS011;46564;53.096;8.246;2023-05-10T22:26:26;7.18;;;2.90;;
60714;SDS011;46564;53.096;8.246;2023-05-10T22:31:27;6.32;;;2.67;;
60714;SDS011;46564;53.096;8.246;2023-05-10T22:36:29;6.28;;;2.33;;
60714;SDS011;46564;53.096;8.246;2023-05-10T22:41:32;4.38;;;1.83;;
60714;SDS011;46564;53.096;8.246;2023-05-10T22:46:34;8.98;;;2.88;;
60714;SDS011;46564;53.096;8.246;2023-05-10T22:51:37;6.47;;;2.08;;
60714;SDS011;46564;53.096;8.246;2023-05-10T22:56:38;6.60;;;2.67;;
60714;SDS011;46564;53.096;8.246;2023-05-10T23:01:40;5.25;;;2.55;;
60714;SDS011;46564;53.096;8.246;2023-05-10T23:06:41;5.85;;;2.40;;
60714;SDS011;46564;53.096;8.246;2023-05-10T23:11:43;5.95;;;2.47;;
60714;SDS011;46564;53.096;8.246;2023-05-10T23:16:45;5.18;;;2.45;;
60714;SDS011;46564;53.096;8.246;2023-05-10T23:21:47;6.63;;;2.65;;
60714;SDS011;46564;53.096;8.246;2023-05-10T23:26:49;6.50;;;2.35;;
60714;SDS011;46564;53.096;8.246;2023-05-10T23:31:51;5.18;;;2.17;;
60714;SDS011;46564;53.096;8.246;2023-05-10T23:36:53;6.85;;;3.20;;
60714;SDS011;46564;53.096;8.246;2023-05-10T23:41:54;6.00;;;2.45;;
60714;SDS011;46564;53.096;8.246;2023-05-10T23:46:56;11.43;;;3.75;;
60714;SDS011;46564;53.096;8.246;2023-05-10T23:51:57;10.13;;;3.35;;
60714;SDS011;46564;53.096;8.246;2023-05-10T23:56:59;10.07;;;4.10;;
